sensor_id;sensor_type;location;lat;lon;timestamp;temperature;humidity
55083;DHT22;40978;52.850;6.506;2023-10-08T00:02:04;13.90;99.90
55083;DHT22;40978;52.850;6.506;2023-10-08T00:04:32;13.90;99.90
55083;DHT22;40978;52.850;6.506;2023-10-08T00:07:04;13.80;99.90
55083;DHT22;40978;52.850;6.506;2023-10-08T00:09:33;13.70;99.90
55083;DHT22;40978;52.850;6.506;2023-10-08T00:12:01;13.70;99.90
55083;DHT22;40978;52.850;6.506;2023-10-08T00:14:27;13.60;99.90
55083;DHT22;40978;52.850;6.506;2023-10-08T00:16:53;13.50;99.90
55083;DHT22;40978;52.850;6.506;2023-10-08T00:19:19;13.50;99.90
55083;DHT22;40978;52.850;6.506;2023-10-08T00:21:47;13.40;99.90
55083;DHT22;40978;52.850;6.506;2023-10-08T00:24:14;13.40;99.90
55083;DHT22;40978;52.850;6.506;2023-10-08T00:26:41;13.40;99.90
55083;DHT22;40978;52.850;6.506;2023-10-08T00:29:08;13.40;99.90
55083;DHT22;40978;52.850;6.506;2023-10-08T00:31:50;13.50;99.90
55083;DHT22;40978;52.850;6.506;2023-10-08T00:34:17;13.40;99.90
55083;DHT22;40978;52.850;6.506;2023-10-08T00:36:46;13.50;99.90
55083;DHT22;40978;52.850;6.506;2023-10-08T00:39:13;13.50;99.90
55083;DHT22;40978;52.850;6.506;2023-10-08T00:41:44;13.50;99.90
55083;DHT22;40978;52.850;6.506;2023-10-08T00:44:11;13.40;99.90
55083;DHT22;40978;52.850;6.506;2023-10-08T00:47:09;13.40;99.90
55083;DHT22;40978;52.850;6.506;2023-10-08T00:49:37;13.40;99.90
55083;DHT22;40978;52.850;6.506;2023-10-08T00:52:08;13.40;99.90
55083;DHT22;40978;52.850;6.506;2023-10-08T00:54:39;13.30;99.90
55083;DHT22;40978;52.850;6.506;2023-10-08T00:57:19;13.30;99.90
55083;DHT22;40978;52.850;6.506;2023-10-08T00:59:47;13.30;99.90
55083;DHT22;40978;52.850;6.506;2023-10-08T01:02:26;13.30;99.90
55083;DHT22;40978;52.850;6.506;2023-10-08T01:05:13;13.30;99.90
55083;DHT22;40978;52.850;6.506;2023-10-08T01:07:43;13.30;99.90
55083;DHT22;40978;52.850;6.506;2023-10-08T01:10:11;13.30;99.90
55083;DHT22;40978;52.850;6.506;2023-10-08T01:12:39;13.20;99.90
55083;DHT22;40978;52.850;6.506;2023-10-08T01:15:21;13.20;99.90
55083;DHT22;40978;52.850;6.506;2023-10-08T01:17:59;13.20;99.90
55083;DHT22;40978;52.850;6.506;2023-10-08T01:20:42;13.20;99.90
55083;DHT22;40978;52.850;6.506;2023-10-08T01:23:11;13.20;99.90
55083;DHT22;40978;52.850;6.506;2023-10-08T01:25:39;13.20;99.90
55083;DHT22;40978;52.850;6.506;2023-10-08T01:28:06;13.20;99.90
55083;DHT22;40978;52.850;6.506;2023-10-08T01:30:46;13.20;99.90
55083;DHT22;40978;52.850;6.506;2023-10-08T01:33:13;13.10;99.90
55083;DHT22;40978;52.850;6.506;2023-10-08T01:35:41;13.10;99.90
55083;DHT22;40978;52.850;6.506;2023-10-08T01:38:08;13.10;99.90
55083;DHT22;40978;52.850;6.506;2023-10-08T01:40:40;13.10;99.90
55083;DHT22;40978;52.850;6.506;2023-10-08T01:43:05;13.00;99.90
55083;DHT22;40978;52.850;6.506;2023-10-08T01:45:31;13.00;99.90
55083;DHT22;40978;52.850;6.506;2023-10-08T01:47:58;13.00;99.90
55083;DHT22;40978;52.850;6.506;2023-10-08T01:50:24;13.00;99.90
55083;DHT22;40978;52.850;6.506;2023-10-08T01:52:55;13.00;99.90
55083;DHT22;40978;52.850;6.506;2023-10-08T01:55:21;13.00;99.90
55083;DHT22;40978;52.850;6.506;2023-10-08T01:57:50;13.00;99.90
55083;DHT22;40978;52.850;6.506;2023-10-08T02:00:17;13.00;99.90
55083;DHT22;40978;52.850;6.506;2023-10-08T02:02:49;13.00;99.90
55083;DHT22;40978;52.850;6.506;2023-10-08T02:05:19;13.00;99.90
55083;DHT22;40978;52.850;6.506;2023-10-08T02:07:46;13.00;99.90
55083;DHT22;40978;52.850;6.506;2023-10-08T02:10:12;13.00;99.90
55083;DHT22;40978;52.850;6.506;2023-10-08T02:12:40;13.00;99.90
55083;DHT22;40978;52.850;6.506;2023-10-08T02:15:07;13.00;99.90
55083;DHT22;40978;52.850;6.506;2023-10-08T02:17:34;13.00;99.90
55083;DHT22;40978;52.850;6.506;2023-10-08T02:20:00;13.00;99.90
55083;DHT22;40978;52.850;6.506;2023-10-08T02:22:26;13.00;99.90
55083;DHT22;40978;52.850;6.506;2023-10-08T02:24:52;13.00;99.90
55083;DHT22;40978;52.850;6.506;2023-10-08T02:27:19;13.10;99.90
55083;DHT22;40978;52.850;6.506;2023-10-08T02:29:44;13.00;99.90
55083;DHT22;40978;52.850;6.506;2023-10-08T02:32:10;13.00;99.90
55083;DHT22;40978;52.850;6.506;2023-10-08T02:34:36;13.00;99.90
55083;DHT22;40978;52.850;6.506;2023-10-08T02:37:01;13.10;99.90
55083;DHT22;40978;52.850;6.506;2023-10-08T02:39:29;13.00;99.90
55083;DHT22;40978;52.850;6.506;2023-10-08T02:41:57;13.10;99.90
55083;DHT22;40978;52.850;6.506;2023-10-08T02:44:25;13.00;99.90
55083;DHT22;40978;52.850;6.506;2023-10-08T02:46:53;13.00;99.90
55083;DHT22;40978;52.850;6.506;2023-10-08T02:49:20;13.00;99.90
55083;DHT22;40978;52.850;6.506;2023-10-08T02:51:51;13.00;99.90
55083;DHT22;40978;52.850;6.506;2023-10-08T02:54:17;13.00;99.90
55083;DHT22;40978;52.850;6.506;2023-10-08T02:56:52;13.00;99.90
55083;DHT22;40978;52.850;6.506;2023-10-08T02:59:23;13.00;99.90
55083;DHT22;40978;52.850;6.506;2023-10-08T03:01:50;13.00;99.90
55083;DHT22;40978;52.850;6.506;2023-10-08T03:04:21;13.00;99.90
55083;DHT22;40978;52.850;6.506;2023-10-08T03:06:51;12.90;99.90
55083;DHT22;40978;52.850;6.506;2023-10-08T03:09:21;13.00;99.90
55083;DHT22;40978;52.850;6.506;2023-10-08T03:11:51;12.90;99.90
55083;DHT22;40978;52.850;6.506;2023-10-08T03:14:21;13.00;99.90
55083;DHT22;40978;52.850;6.506;2023-10-08T03:16:53;13.00;99.90
55083;DHT22;40978;52.850;6.506;2023-10-08T03:19:21;12.90;99.90
55083;DHT22;40978;52.850;6.506;2023-10-08T03:21:48;12.90;99.90
55083;DHT22;40978;52.850;6.506;2023-10-08T03:24:19;12.90;99.90
55083;DHT22;40978;52.850;6.506;2023-10-08T03:27:04;12.90;99.90
55083;DHT22;40978;52.850;6.506;2023-10-08T03:29:48;12.90;99.90
55083;DHT22;40978;52.850;6.506;2023-10-08T03:32:14;12.90;99.90
55083;DHT22;40978;52.850;6.506;2023-10-08T03:34:49;12.80;99.90
55083;DHT22;40978;52.850;6.506;2023-10-08T03:37:22;12.80;99.90
55083;DHT22;40978;52.850;6.506;2023-10-08T03:39:55;12.80;99.90
55083;DHT22;40978;52.850;6.506;2023-10-08T03:42:55;12.80;99.90
55083;DHT22;40978;52.850;6.506;2023-10-08T03:45:21;12.80;99.90
55083;DHT22;40978;52.850;6.506;2023-10-08T03:48:06;12.80;99.90
55083;DHT22;40978;52.850;6.506;2023-10-08T03:50:33;12.80;99.90
55083;DHT22;40978;52.850;6.506;2023-10-08T03:53:07;12.80;99.90
55083;DHT22;40978;52.850;6.506;2023-10-08T03:55:38;12.80;99.90
55083;DHT22;40978;52.850;6.506;2023-10-08T03:58:09;12.70;99.90
55083;DHT22;40978;52.850;6.506;2023-10-08T04:00:53;12.80;99.90
55083;DHT22;40978;52.850;6.506;2023-10-08T04:03:37;12.80;99.90
55083;DHT22;40978;52.850;6.506;2023-10-08T04:06:20;12.80;99.90
55083;DHT22;40978;52.850;6.506;2023-10-08T04:08:54;12.80;99.90
55083;DHT22;40978;52.850;6.506;2023-10-08T04:11:37;12.80;99.90
55083;DHT22;40978;52.850;6.506;2023-10-08T04:14:21;12.80;99.90
55083;DHT22;40978;52.850;6.506;2023-10-08T04:16:47;12.80;99.90
55083;DHT22;40978;52.850;6.506;2023-10-08T04:19:20;12.80;99.90
55083;DHT22;40978;52.850;6.506;2023-10-08T04:21:47;12.80;99.90
55083;DHT22;40978;52.850;6.506;2023-10-08T04:24:24;12.80;99.90
55083;DHT22;40978;52.850;6.506;2023-10-08T04:27:02;12.80;99.90
55083;DHT22;40978;52.850;6.506;2023-10-08T04:29:29;12.80;99.90
55083;DHT22;40978;52.850;6.506;2023-10-08T04:31:59;12.80;99.90
55083;DHT22;40978;52.850;6.506;2023-10-08T04:34:34;12.80;99.90
55083;DHT22;40978;52.850;6.506;2023-10-08T04:36:59;12.80;99.90
55083;DHT22;40978;52.850;6.506;2023-10-08T04:39:38;12.80;99.90
55083;DHT22;40978;52.850;6.506;2023-10-08T04:42:06;12.80;99.90
55083;DHT22;40978;52.850;6.506;2023-10-08T04:44:37;12.90;99.90
55083;DHT22;40978;52.850;6.506;2023-10-08T04:47:06;12.80;99.90
55083;DHT22;40978;52.850;6.506;2023-10-08T04:49:32;12.90;99.90
55083;DHT22;40978;52.850;6.506;2023-10-08T04:52:03;12.90;99.90
55083;DHT22;40978;52.850;6.506;2023-10-08T04:54:41;12.90;99.90
55083;DHT22;40978;52.850;6.506;2023-10-08T04:57:12;12.90;99.90
55083;DHT22;40978;52.850;6.506;2023-10-08T04:59:44;12.90;99.90
55083;DHT22;40978;52.850;6.506;2023-10-08T05:02:12;12.90;99.90
55083;DHT22;40978;52.850;6.506;2023-10-08T05:04:59;12.90;99.90
55083;DHT22;40978;52.850;6.506;2023-10-08T05:07:37;12.90;99.90
55083;DHT22;40978;52.850;6.506;2023-10-08T05:10:13;12.90;99.90
55083;DHT22;40978;52.850;6.506;2023-10-08T05:12:54;12.90;99.90
55083;DHT22;40978;52.850;6.506;2023-10-08T05:15:28;12.80;99.90
55083;DHT22;40978;52.850;6.506;2023-10-08T05:18:23;12.80;99.90
55083;DHT22;40978;52.850;6.506;2023-10-08T05:21:03;12.80;99.90
55083;DHT22;40978;52.850;6.506;2023-10-08T05:23:49;12.80;99.90
55083;DHT22;40978;52.850;6.506;2023-10-08T05:26:38;12.80;99.90
55083;DHT22;40978;52.850;6.506;2023-10-08T05:29:08;12.80;99.90
55083;DHT22;40978;52.850;6.506;2023-10-08T05:31:53;12.80;99.90
55083;DHT22;40978;52.850;6.506;2023-10-08T05:34:38;12.80;99.90
55083;DHT22;40978;52.850;6.506;2023-10-08T05:37:21;12.70;99.90
55083;DHT22;40978;52.850;6.506;2023-10-08T05:40:08;12.70;99.90
55083;DHT22;40978;52.850;6.506;2023-10-08T05:42:46;12.70;99.90
55083;DHT22;40978;52.850;6.506;2023-10-08T05:45:13;12.70;99.90
55083;DHT22;40978;52.850;6.506;2023-10-08T05:47:38;12.70;99.90
55083;DHT22;40978;52.850;6.506;2023-10-08T05:50:07;12.70;99.90
55083;DHT22;40978;52.850;6.506;2023-10-08T05:52:42;12.70;99.90
55083;DHT22;40978;52.850;6.506;2023-10-08T05:55:24;12.70;99.90
55083;DHT22;40978;52.850;6.506;2023-10-08T05:57:51;12.70;99.90
55083;DHT22;40978;52.850;6.506;2023-10-08T06:00:41;12.70;99.90
55083;DHT22;40978;52.850;6.506;2023-10-08T06:03:18;12.70;99.90
55083;DHT22;40978;52.850;6.506;2023-10-08T06:06:13;12.70;99.90
55083;DHT22;40978;52.850;6.506;2023-10-08T06:08:41;12.80;99.90
55083;DHT22;40978;52.850;6.506;2023-10-08T06:11:26;12.90;99.90
55083;DHT22;40978;52.850;6.506;2023-10-08T06:14:11;12.90;99.90
55083;DHT22;40978;52.850;6.506;2023-10-08T06:16:53;12.90;99.90
55083;DHT22;40978;52.850;6.506;2023-10-08T06:19:39;12.90;99.90
55083;DHT22;40978;52.850;6.506;2023-10-08T06:22:05;12.90;99.90
55083;DHT22;40978;52.850;6.506;2023-10-08T06:24:31;12.90;99.90
55083;DHT22;40978;52.850;6.506;2023-10-08T06:26:58;12.90;99.90
55083;DHT22;40978;52.850;6.506;2023-10-08T06:29:31;12.90;99.90
55083;DHT22;40978;52.850;6.506;2023-10-08T06:31:57;12.90;99.90
55083;DHT22;40978;52.850;6.506;2023-10-08T06:34:28;13.00;99.90
55083;DHT22;40978;52.850;6.506;2023-10-08T06:36:57;12.90;99.90
55083;DHT22;40978;52.850;6.506;2023-10-08T06:39:24;13.00;99.90
55083;DHT22;40978;52.850;6.506;2023-10-08T06:42:13;13.00;99.90
55083;DHT22;40978;52.850;6.506;2023-10-08T06:44:43;13.00;99.90
55083;DHT22;40978;52.850;6.506;2023-10-08T06:47:12;13.10;99.90
55083;DHT22;40978;52.850;6.506;2023-10-08T06:49:42;13.10;99.90
55083;DHT22;40978;52.850;6.506;2023-10-08T06:52:09;13.10;99.90
55083;DHT22;40978;52.850;6.506;2023-10-08T06:54:38;13.10;99.90
55083;DHT22;40978;52.850;6.506;2023-10-08T06:57:03;13.10;99.90
55083;DHT22;40978;52.850;6.506;2023-10-08T06:59:29;13.10;99.90
55083;DHT22;40978;52.850;6.506;2023-10-08T07:01:57;13.20;99.90
55083;DHT22;40978;52.850;6.506;2023-10-08T07:04:24;13.10;99.90
55083;DHT22;40978;52.850;6.506;2023-10-08T07:06:50;13.10;99.90
55083;DHT22;40978;52.850;6.506;2023-10-08T07:09:17;13.20;99.90
55083;DHT22;40978;52.850;6.506;2023-10-08T07:11:58;13.10;99.90
55083;DHT22;40978;52.850;6.506;2023-10-08T07:14:25;13.10;99.90
55083;DHT22;40978;52.850;6.506;2023-10-08T07:16:58;13.10;99.90
55083;DHT22;40978;52.850;6.506;2023-10-08T07:19:29;13.10;99.90
55083;DHT22;40978;52.850;6.506;2023-10-08T07:22:08;13.20;99.90
55083;DHT22;40978;52.850;6.506;2023-10-08T07:24:53;13.20;99.90
55083;DHT22;40978;52.850;6.506;2023-10-08T07:27:20;13.30;99.90
55083;DHT22;40978;52.850;6.506;2023-10-08T07:30:03;13.30;99.90
55083;DHT22;40978;52.850;6.506;2023-10-08T07:32:38;13.40;99.90
55083;DHT22;40978;52.850;6.506;2023-10-08T07:35:07;13.50;99.90
55083;DHT22;40978;52.850;6.506;2023-10-08T07:37:59;13.60;99.90
55083;DHT22;40978;52.850;6.506;2023-10-08T07:40:28;13.70;99.90
55083;DHT22;40978;52.850;6.506;2023-10-08T07:42:55;13.70;99.90
55083;DHT22;40978;52.850;6.506;2023-10-08T07:45:21;13.80;99.90
55083;DHT22;40978;52.850;6.506;2023-10-08T07:47:47;13.90;99.90
55083;DHT22;40978;52.850;6.506;2023-10-08T07:50:14;13.80;99.90
55083;DHT22;40978;52.850;6.506;2023-10-08T07:52:41;13.90;99.90
55083;DHT22;40978;52.850;6.506;2023-10-08T07:55:10;13.90;99.90
55083;DHT22;40978;52.850;6.506;2023-10-08T07:57:42;14.10;99.90
55083;DHT22;40978;52.850;6.506;2023-10-08T08:00:08;14.30;99.90
55083;DHT22;40978;52.850;6.506;2023-10-08T08:02:52;14.30;99.90
55083;DHT22;40978;52.850;6.506;2023-10-08T08:05:20;14.40;99.90
55083;DHT22;40978;52.850;6.506;2023-10-08T08:07:46;14.40;99.90
55083;DHT22;40978;52.850;6.506;2023-10-08T08:10:12;14.40;99.90
55083;DHT22;40978;52.850;6.506;2023-10-08T08:12:39;14.60;99.90
55083;DHT22;40978;52.850;6.506;2023-10-08T08:15:05;15.30;99.90
55083;DHT22;40978;52.850;6.506;2023-10-08T08:17:44;16.30;99.90
55083;DHT22;40978;52.850;6.506;2023-10-08T08:20:43;17.10;99.90
55083;DHT22;40978;52.850;6.506;2023-10-08T08:23:09;17.50;99.90
55083;DHT22;40978;52.850;6.506;2023-10-08T08:25:42;17.50;99.90
55083;DHT22;40978;52.850;6.506;2023-10-08T08:28:26;17.50;99.90
55083;DHT22;40978;52.850;6.506;2023-10-08T08:30:54;17.40;99.90
55083;DHT22;40978;52.850;6.506;2023-10-08T08:33:23;17.70;99.90
55083;DHT22;40978;52.850;6.506;2023-10-08T08:35:59;17.90;99.90
55083;DHT22;40978;52.850;6.506;2023-10-08T08:38:26;17.70;99.90
55083;DHT22;40978;52.850;6.506;2023-10-08T08:41:02;17.30;99.90
55083;DHT22;40978;52.850;6.506;2023-10-08T08:43:36;17.00;99.90
55083;DHT22;40978;52.850;6.506;2023-10-08T08:46:03;16.90;99.90
55083;DHT22;40978;52.850;6.506;2023-10-08T08:48:34;17.10;99.90
55083;DHT22;40978;52.850;6.506;2023-10-08T08:51:00;17.50;99.90
55083;DHT22;40978;52.850;6.506;2023-10-08T08:53:26;17.60;99.90
55083;DHT22;40978;52.850;6.506;2023-10-08T08:55:54;17.70;99.90
55083;DHT22;40978;52.850;6.506;2023-10-08T08:58:36;17.80;99.90
55083;DHT22;40978;52.850;6.506;2023-10-08T09:01:05;17.60;99.90
55083;DHT22;40978;52.850;6.506;2023-10-08T09:03:31;17.90;99.90
55083;DHT22;40978;52.850;6.506;2023-10-08T09:05:58;17.90;99.90
55083;DHT22;40978;52.850;6.506;2023-10-08T09:08:35;17.80;99.90
55083;DHT22;40978;52.850;6.506;2023-10-08T09:11:01;17.70;99.90
55083;DHT22;40978;52.850;6.506;2023-10-08T09:13:28;17.40;99.90
55083;DHT22;40978;52.850;6.506;2023-10-08T09:16:13;17.20;99.90
55083;DHT22;40978;52.850;6.506;2023-10-08T09:18:42;17.30;99.90
55083;DHT22;40978;52.850;6.506;2023-10-08T09:21:14;17.40;99.90
55083;DHT22;40978;52.850;6.506;2023-10-08T09:23:43;18.20;99.90
55083;DHT22;40978;52.850;6.506;2023-10-08T09:26:28;19.10;99.90
55083;DHT22;40978;52.850;6.506;2023-10-08T09:28:54;19.10;99.90
55083;DHT22;40978;52.850;6.506;2023-10-08T09:31:23;18.60;99.90
55083;DHT22;40978;52.850;6.506;2023-10-08T09:33:56;18.30;99.90
55083;DHT22;40978;52.850;6.506;2023-10-08T09:36:22;18.10;99.90
55083;DHT22;40978;52.850;6.506;2023-10-08T09:39:01;18.30;99.90
55083;DHT22;40978;52.850;6.506;2023-10-08T09:41:31;18.20;99.90
55083;DHT22;40978;52.850;6.506;2023-10-08T09:43:58;18.10;99.90
55083;DHT22;40978;52.850;6.506;2023-10-08T09:46:30;17.90;99.90
55083;DHT22;40978;52.850;6.506;2023-10-08T09:48:59;18.10;99.90
55083;DHT22;40978;52.850;6.506;2023-10-08T09:51:28;18.70;99.90
55083;DHT22;40978;52.850;6.506;2023-10-08T09:54:10;19.40;99.90
55083;DHT22;40978;52.850;6.506;2023-10-08T09:56:40;19.60;99.90
55083;DHT22;40978;52.850;6.506;2023-10-08T09:59:06;19.90;99.90
55083;DHT22;40978;52.850;6.506;2023-10-08T10:01:41;20.40;99.90
55083;DHT22;40978;52.850;6.506;2023-10-08T10:04:10;20.90;99.90
55083;DHT22;40978;52.850;6.506;2023-10-08T10:06:37;20.80;99.90
55083;DHT22;40978;52.850;6.506;2023-10-08T10:09:05;20.70;99.60
55083;DHT22;40978;52.850;6.506;2023-10-08T10:11:51;21.10;99.90
55083;DHT22;40978;52.850;6.506;2023-10-08T10:14:21;21.20;99.90
55083;DHT22;40978;52.850;6.506;2023-10-08T10:17:12;21.10;96.00
55083;DHT22;40978;52.850;6.506;2023-10-08T10:19:40;21.10;98.30
55083;DHT22;40978;52.850;6.506;2023-10-08T10:22:13;21.60;98.20
55083;DHT22;40978;52.850;6.506;2023-10-08T10:24:41;22.20;95.20
55083;DHT22;40978;52.850;6.506;2023-10-08T10:27:15;21.80;98.10
55083;DHT22;40978;52.850;6.506;2023-10-08T10:29:42;21.00;93.10
55083;DHT22;40978;52.850;6.506;2023-10-08T10:32:14;20.20;93.60
55083;DHT22;40978;52.850;6.506;2023-10-08T10:34:44;19.40;95.40
55083;DHT22;40978;52.850;6.506;2023-10-08T10:37:10;18.80;98.80
55083;DHT22;40978;52.850;6.506;2023-10-08T10:39:55;18.50;99.90
55083;DHT22;40978;52.850;6.506;2023-10-08T10:42:24;18.50;99.90
55083;DHT22;40978;52.850;6.506;2023-10-08T10:44:52;19.20;99.90
55083;DHT22;40978;52.850;6.506;2023-10-08T10:47:19;19.80;99.90
55083;DHT22;40978;52.850;6.506;2023-10-08T10:49:51;19.90;98.20
55083;DHT22;40978;52.850;6.506;2023-10-08T10:52:32;19.70;98.30
55083;DHT22;40978;52.850;6.506;2023-10-08T10:57:50;19.90;97.00
55083;DHT22;40978;52.850;6.506;2023-10-08T11:00:28;20.30;95.60
55083;DHT22;40978;52.850;6.506;2023-10-08T11:03:01;20.70;99.90
55083;DHT22;40978;52.850;6.506;2023-10-08T11:05:33;21.20;99.60
55083;DHT22;40978;52.850;6.506;2023-10-08T11:08:04;21.60;93.30
55083;DHT22;40978;52.850;6.506;2023-10-08T11:10:34;21.90;91.60
55083;DHT22;40978;52.850;6.506;2023-10-08T11:13:05;21.60;84.70
55083;DHT22;40978;52.850;6.506;2023-10-08T11:15:40;21.60;87.90
55083;DHT22;40978;52.850;6.506;2023-10-08T11:18:26;20.70;90.40
55083;DHT22;40978;52.850;6.506;2023-10-08T11:21:06;20.00;92.60
55083;DHT22;40978;52.850;6.506;2023-10-08T11:23:48;20.00;97.40
55083;DHT22;40978;52.850;6.506;2023-10-08T11:26:25;20.30;94.40
55083;DHT22;40978;52.850;6.506;2023-10-08T11:28:58;21.00;98.70
55083;DHT22;40978;52.850;6.506;2023-10-08T11:31:27;21.10;93.90
55083;DHT22;40978;52.850;6.506;2023-10-08T11:33:59;20.70;97.20
55083;DHT22;40978;52.850;6.506;2023-10-08T11:36:27;20.10;96.00
55083;DHT22;40978;52.850;6.506;2023-10-08T11:38:54;19.60;98.70
55083;DHT22;40978;52.850;6.506;2023-10-08T11:41:27;19.50;99.90
55083;DHT22;40978;52.850;6.506;2023-10-08T11:43:57;19.90;99.90
55083;DHT22;40978;52.850;6.506;2023-10-08T11:46:31;20.70;99.90
55083;DHT22;40978;52.850;6.506;2023-10-08T11:49:06;21.10;99.90
55083;DHT22;40978;52.850;6.506;2023-10-08T11:51:36;21.00;99.90
55083;DHT22;40978;52.850;6.506;2023-10-08T11:54:02;20.40;99.90
55083;DHT22;40978;52.850;6.506;2023-10-08T11:56:32;20.10;99.90
55083;DHT22;40978;52.850;6.506;2023-10-08T11:59:01;19.80;99.90
55083;DHT22;40978;52.850;6.506;2023-10-08T12:01:27;19.60;99.90
55083;DHT22;40978;52.850;6.506;2023-10-08T12:03:53;19.90;99.90
55083;DHT22;40978;52.850;6.506;2023-10-08T12:06:25;19.90;99.90
55083;DHT22;40978;52.850;6.506;2023-10-08T12:08:55;19.90;99.90
55083;DHT22;40978;52.850;6.506;2023-10-08T12:11:25;19.90;99.90
55083;DHT22;40978;52.850;6.506;2023-10-08T12:13:57;19.90;99.90
55083;DHT22;40978;52.850;6.506;2023-10-08T12:16:24;19.80;99.90
55083;DHT22;40978;52.850;6.506;2023-10-08T12:18:52;19.60;99.90
55083;DHT22;40978;52.850;6.506;2023-10-08T12:21:30;19.50;99.90
55083;DHT22;40978;52.850;6.506;2023-10-08T12:24:00;19.40;99.90
55083;DHT22;40978;52.850;6.506;2023-10-08T12:26:30;19.40;99.90
55083;DHT22;40978;52.850;6.506;2023-10-08T12:28:57;19.40;99.90
55083;DHT22;40978;52.850;6.506;2023-10-08T12:31:23;19.60;99.90
55083;DHT22;40978;52.850;6.506;2023-10-08T12:33:50;19.60;99.90
55083;DHT22;40978;52.850;6.506;2023-10-08T12:36:25;19.50;99.90
55083;DHT22;40978;52.850;6.506;2023-10-08T12:38:52;19.40;99.90
55083;DHT22;40978;52.850;6.506;2023-10-08T12:41:27;19.30;99.90
55083;DHT22;40978;52.850;6.506;2023-10-08T12:43:53;19.40;99.90
55083;DHT22;40978;52.850;6.506;2023-10-08T12:46:20;19.30;99.90
55083;DHT22;40978;52.850;6.506;2023-10-08T12:48:56;19.40;99.90
55083;DHT22;40978;52.850;6.506;2023-10-08T12:51:23;19.70;99.90
55083;DHT22;40978;52.850;6.506;2023-10-08T12:53:51;20.10;99.90
55083;DHT22;40978;52.850;6.506;2023-10-08T12:56:24;20.40;99.90
55083;DHT22;40978;52.850;6.506;2023-10-08T12:58:58;20.40;99.90
55083;DHT22;40978;52.850;6.506;2023-10-08T13:01:24;20.30;99.90
55083;DHT22;40978;52.850;6.506;2023-10-08T13:03:54;20.70;99.90
55083;DHT22;40978;52.850;6.506;2023-10-08T13:06:26;20.40;99.90
55083;DHT22;40978;52.850;6.506;2023-10-08T13:08:55;20.20;99.90
55083;DHT22;40978;52.850;6.506;2023-10-08T13:11:22;19.90;99.90
55083;DHT22;40978;52.850;6.506;2023-10-08T13:13:52;19.60;99.90
55083;DHT22;40978;52.850;6.506;2023-10-08T13:16:22;19.20;99.70
55083;DHT22;40978;52.850;6.506;2023-10-08T13:18:48;18.80;99.90
55083;DHT22;40978;52.850;6.506;2023-10-08T13:21:14;18.50;99.90
55083;DHT22;40978;52.850;6.506;2023-10-08T13:23:41;18.30;99.90
55083;DHT22;40978;52.850;6.506;2023-10-08T13:26:07;18.10;99.90
55083;DHT22;40978;52.850;6.506;2023-10-08T13:28:36;18.10;99.90
55083;DHT22;40978;52.850;6.506;2023-10-08T13:31:05;18.20;99.90
55083;DHT22;40978;52.850;6.506;2023-10-08T13:33:41;18.30;99.90
55083;DHT22;40978;52.850;6.506;2023-10-08T13:36:15;18.20;99.90
55083;DHT22;40978;52.850;6.506;2023-10-08T13:38:41;18.00;99.90
55083;DHT22;40978;52.850;6.506;2023-10-08T13:41:07;18.00;99.90
55083;DHT22;40978;52.850;6.506;2023-10-08T13:46:57;17.80;99.90
55083;DHT22;40978;52.850;6.506;2023-10-08T13:49:24;17.50;99.90
55083;DHT22;40978;52.850;6.506;2023-10-08T13:51:52;17.50;99.90
55083;DHT22;40978;52.850;6.506;2023-10-08T13:54:24;17.30;99.90
55083;DHT22;40978;52.850;6.506;2023-10-08T13:57:01;17.30;99.90
55083;DHT22;40978;52.850;6.506;2023-10-08T13:59:27;17.20;99.90
55083;DHT22;40978;52.850;6.506;2023-10-08T14:01:56;17.20;99.90
55083;DHT22;40978;52.850;6.506;2023-10-08T14:04:22;17.10;99.90
55083;DHT22;40978;52.850;6.506;2023-10-08T14:07:03;17.10;99.90
55083;DHT22;40978;52.850;6.506;2023-10-08T14:09:29;16.90;99.90
55083;DHT22;40978;52.850;6.506;2023-10-08T14:12:03;16.90;99.90
55083;DHT22;40978;52.850;6.506;2023-10-08T14:14:29;16.90;99.90
55083;DHT22;40978;52.850;6.506;2023-10-08T14:16:56;16.90;99.90
55083;DHT22;40978;52.850;6.506;2023-10-08T14:19:28;16.90;99.90
55083;DHT22;40978;52.850;6.506;2023-10-08T14:22:04;16.90;99.90
55083;DHT22;40978;52.850;6.506;2023-10-08T14:24:30;16.90;99.90
55083;DHT22;40978;52.850;6.506;2023-10-08T14:27:04;16.90;99.90
55083;DHT22;40978;52.850;6.506;2023-10-08T14:29:38;16.90;99.90
55083;DHT22;40978;52.850;6.506;2023-10-08T14:32:10;16.90;99.90
55083;DHT22;40978;52.850;6.506;2023-10-08T14:34:37;16.80;99.90
55083;DHT22;40978;52.850;6.506;2023-10-08T14:37:09;16.80;99.90
55083;DHT22;40978;52.850;6.506;2023-10-08T14:39:53;16.80;99.90
55083;DHT22;40978;52.850;6.506;2023-10-08T14:42:41;16.80;99.90
55083;DHT22;40978;52.850;6.506;2023-10-08T14:45:30;16.70;99.90
55083;DHT22;40978;52.850;6.506;2023-10-08T14:48:02;16.70;99.90
55083;DHT22;40978;52.850;6.506;2023-10-08T14:50:31;16.60;99.90
55083;DHT22;40978;52.850;6.506;2023-10-08T14:52:58;16.60;99.90
55083;DHT22;40978;52.850;6.506;2023-10-08T14:55:30;16.60;99.90
55083;DHT22;40978;52.850;6.506;2023-10-08T14:57:56;16.50;99.90
55083;DHT22;40978;52.850;6.506;2023-10-08T15:00:22;16.50;99.90
55083;DHT22;40978;52.850;6.506;2023-10-08T15:02:55;16.50;99.90
55083;DHT22;40978;52.850;6.506;2023-10-08T15:05:24;16.50;99.90
55083;DHT22;40978;52.850;6.506;2023-10-08T15:07:51;16.50;99.90
55083;DHT22;40978;52.850;6.506;2023-10-08T15:10:20;16.50;99.90
55083;DHT22;40978;52.850;6.506;2023-10-08T15:15:54;16.50;99.90
55083;DHT22;40978;52.850;6.506;2023-10-08T15:18:20;16.50;99.90
55083;DHT22;40978;52.850;6.506;2023-10-08T15:20:48;16.50;99.90
55083;DHT22;40978;52.850;6.506;2023-10-08T15:23:14;16.50;99.90
55083;DHT22;40978;52.850;6.506;2023-10-08T15:25:43;16.50;99.90
55083;DHT22;40978;52.850;6.506;2023-10-08T15:28:09;16.50;99.90
55083;DHT22;40978;52.850;6.506;2023-10-08T15:30:35;16.50;99.90
55083;DHT22;40978;52.850;6.506;2023-10-08T15:33:01;16.50;99.90
55083;DHT22;40978;52.850;6.506;2023-10-08T15:35:26;16.40;99.90
55083;DHT22;40978;52.850;6.506;2023-10-08T15:37:52;16.40;99.90
55083;DHT22;40978;52.850;6.506;2023-10-08T15:40:19;16.40;99.90
55083;DHT22;40978;52.850;6.506;2023-10-08T15:42:52;16.40;99.90
55083;DHT22;40978;52.850;6.506;2023-10-08T15:45:19;16.30;99.90
55083;DHT22;40978;52.850;6.506;2023-10-08T15:47:45;16.30;99.90
55083;DHT22;40978;52.850;6.506;2023-10-08T15:50:11;16.20;99.90
55083;DHT22;40978;52.850;6.506;2023-10-08T15:52:37;16.20;99.90
55083;DHT22;40978;52.850;6.506;2023-10-08T15:55:07;16.10;99.90
55083;DHT22;40978;52.850;6.506;2023-10-08T15:57:33;16.10;99.90
55083;DHT22;40978;52.850;6.506;2023-10-08T16:00:00;16.00;99.90
55083;DHT22;40978;52.850;6.506;2023-10-08T16:02:25;15.90;99.90
55083;DHT22;40978;52.850;6.506;2023-10-08T16:04:51;15.90;99.90
55083;DHT22;40978;52.850;6.506;2023-10-08T16:07:17;15.80;99.90